Time;durP1;ratioP1;P1;durP2;ratioP2;P2;SDS_P1;SDS_P2;PMS_P1;PMS_P2;Temp;Humidity;BMP_temperature;BMP_pressure;BME280_temperature;BME280_humidity;BME280_pressure;Samples;Min_cycle;Max_cycle;Signal;HPM_P1;HPM_P2
2023/07/17 00:01:46;;;;;;;8.60;7.13;;;16.80;99.90;;;;;;5098460;28;20469;-59
2023/07/17 00:04:13;;;;;;;9.13;6.67;;;16.80;99.90;;;;;;5098264;28;20460;-59
2023/07/17 00:06:41;;;;;;;7.63;6.17;;;16.80;99.90;;;;;;5098113;28;20460;-59
2023/07/17 00:09:08;;;;;;;8.20;6.57;;;16.80;99.90;;;;;;5098115;28;20461;-59
2023/07/17 00:11:35;;;;;;;11.33;6.97;;;16.80;99.90;;;;;;5098029;28;20464;-59
2023/07/17 00:14:03;;;;;;;7.90;5.90;;;16.70;99.90;;;;;;5098174;28;20462;-59
2023/07/17 00:16:31;;;;;;;7.50;5.80;;;16.50;99.90;;;;;;5097738;28;20463;-59
2023/07/17 00:18:58;;;;;;;7.93;6.40;;;16.40;99.90;;;;;;5097922;28;20775;-59
2023/07/17 00:21:26;;;;;;;9.10;6.10;;;16.40;99.90;;;;;;5098284;28;20491;-59
2023/07/17 00:23:53;;;;;;;7.53;5.73;;;16.40;99.90;;;;;;5098251;28;20431;-59
2023/07/17 00:26:21;;;;;;;6.77;5.73;;;16.50;99.90;;;;;;5098199;28;20465;-58
2023/07/17 00:28:48;;;;;;;10.67;6.80;;;16.50;99.90;;;;;;5097368;28;20471;-59
2023/07/17 00:31:15;;;;;;;6.87;6.17;;;16.60;99.90;;;;;;5097711;28;20451;-58
2023/07/17 00:33:43;;;;;;;8.00;6.23;;;16.60;99.90;;;;;;5098015;28;20488;-58
2023/07/17 00:36:10;;;;;;;9.80;6.70;;;16.70;99.90;;;;;;5097221;28;20461;-59
2023/07/17 00:38:37;;;;;;;13.10;6.43;;;16.70;99.90;;;;;;5097236;28;20460;-58
2023/07/17 00:41:05;;;;;;;8.70;6.20;;;16.70;99.90;;;;;;5097513;28;20722;-59
2023/07/17 00:43:32;;;;;;;7.70;6.30;;;16.70;99.90;;;;;;5097319;28;20480;-59
2023/07/17 00:45:59;;;;;;;7.50;6.30;;;16.70;99.90;;;;;;5097767;28;20466;-59
2023/07/17 00:48:26;;;;;;;10.93;6.50;;;16.70;99.90;;;;;;5097394;28;20467;-59
2023/07/17 00:50:55;;;;;;;10.73;6.63;;;16.80;99.90;;;;;;5097345;28;20919;-58
2023/07/17 00:53:22;;;;;;;10.23;6.80;;;16.80;99.90;;;;;;5097387;28;20499;-59
2023/07/17 00:55:49;;;;;;;6.93;5.73;;;16.70;99.90;;;;;;5097534;28;20539;-58
2023/07/17 00:58:17;;;;;;;9.27;6.20;;;16.70;99.90;;;;;;5097444;28;20472;-58
2023/07/17 01:00:44;;;;;;;10.60;6.60;;;16.80;99.90;;;;;;5096872;28;20442;-58
2023/07/17 01:03:11;;;;;;;8.63;5.20;;;16.90;99.90;;;;;;5097348;28;20936;-59
2023/07/17 01:05:38;;;;;;;7.60;6.00;;;16.90;99.90;;;;;;5097385;28;20453;-60
2023/07/17 01:08:07;;;;;;;7.50;5.90;;;17.00;99.90;;;;;;5097268;28;20460;-59
2023/07/17 01:10:34;;;;;;;7.03;5.57;;;17.10;99.90;;;;;;5096642;28;20461;-61
2023/07/17 01:13:02;;;;;;;4.80;4.27;;;17.10;99.90;;;;;;5097094;28;20467;-62
2023/07/17 01:15:29;;;;;;;5.73;4.23;;;17.00;99.90;;;;;;5097316;28;20736;-62
2023/07/17 01:17:56;;;;;;;5.90;4.70;;;17.00;1.00;;;;;;5096834;28;20435;-55
2023/07/17 01:20:23;;;;;;;7.10;4.90;;;17.00;1.00;;;;;;5097262;28;20460;-54
2023/07/17 01:22:56;;;;;;;5.83;4.60;;;16.90;1.00;;;;;;5097343;28;20442;-57
2023/07/17 01:25:23;;;;;;;5.30;4.80;;;17.00;1.00;;;;;;5097217;28;20437;-58
2023/07/17 01:27:50;;;;;;;8.23;4.63;;;16.90;1.00;;;;;;5096544;28;20829;-59
2023/07/17 01:30:18;;;;;;;6.70;4.90;;;16.90;1.00;;;;;;5097356;28;20803;-60
2023/07/17 01:32:45;;;;;;;6.90;5.00;;;16.90;1.00;;;;;;5097339;28;20974;-61
2023/07/17 01:35:12;;;;;;;6.27;4.83;;;16.90;1.00;;;;;;5097277;28;20494;-62
2023/07/17 01:37:39;;;;;;;5.00;3.87;;;16.80;1.00;;;;;;5097024;28;20471;-64
2023/07/17 01:40:10;;;;;;;5.00;4.50;;;16.70;1.00;;;;;;5097079;28;20730;-61
2023/07/17 01:42:37;;;;;;;5.20;4.20;;;16.70;1.00;;;;;;5096514;28;20475;-61
2023/07/17 01:45:05;;;;;;;6.17;4.63;;;16.70;1.00;;;;;;5096988;28;20751;-60
2023/07/17 01:47:32;;;;;;;6.47;4.30;;;16.70;1.00;;;;;;5096800;28;20460;-60
2023/07/17 01:50:01;;;;;;;7.33;4.33;;;16.60;1.00;;;;;;5100203;28;20460;-60
2023/07/17 01:52:28;;;;;;;7.40;4.63;;;16.60;1.00;;;;;;5101386;28;20813;-60
2023/07/17 01:54:55;;;;;;;4.90;3.90;;;16.40;1.00;;;;;;5100302;28;20492;-60
2023/07/17 01:57:24;;;;;;;8.67;4.00;;;16.50;1.00;;;;;;5100301;28;20464;-61
2023/07/17 01:59:51;;;;;;;6.20;4.07;;;16.50;1.00;;;;;;5100734;28;20905;-60
2023/07/17 02:02:18;;;;;;;5.60;4.60;;;16.50;1.00;;;;;;5100612;28;20466;-61
2023/07/17 02:04:45;;;;;;;4.73;3.87;;;16.50;1.00;;;;;;5100355;28;20915;-60
2023/07/17 02:07:12;;;;;;;4.87;4.30;;;16.50;1.00;;;;;;5100332;28;20554;-60
2023/07/17 02:09:39;;;;;;;4.83;4.30;;;16.60;1.00;;;;;;5100050;28;20472;-61
2023/07/17 02:12:07;;;;;;;8.10;5.40;;;16.60;1.00;;;;;;5099975;28;20517;-60
2023/07/17 02:14:36;;;;;;;8.40;4.97;;;16.70;1.00;;;;;;5100102;28;20492;-60
2023/07/17 02:17:03;;;;;;;13.67;4.57;;;16.70;1.00;;;;;;5100125;28;20471;-61
2023/07/17 02:19:30;;;;;;;4.40;3.80;;;16.60;1.00;;;;;;5100096;28;20439;-60
2023/07/17 02:21:57;;;;;;;5.90;4.70;;;16.60;1.00;;;;;;5100355;28;20530;-61
2023/07/17 02:24:24;;;;;;;6.33;4.83;;;16.60;1.00;;;;;;5100297;28;20464;-61
2023/07/17 02:26:53;;;;;;;5.77;4.57;;;16.60;1.00;;;;;;5100137;28;20456;-61
2023/07/17 02:29:20;;;;;;;6.70;4.80;;;16.60;1.00;;;;;;5099984;28;20513;-61
2023/07/17 02:31:49;;;;;;;5.30;4.47;;;16.60;1.00;;;;;;5100018;28;20465;-61
2023/07/17 02:34:16;;;;;;;7.80;4.63;;;16.50;1.00;;;;;;5099482;28;20934;-61
2023/07/17 02:36:43;;;;;;;5.50;4.60;;;16.60;1.00;;;;;;5099755;28;20784;-61
2023/07/17 02:39:10;;;;;;;5.40;4.13;;;16.60;1.00;;;;;;5099640;28;20461;-61
2023/07/17 02:41:37;;;;;;;5.67;4.57;;;16.60;1.00;;;;;;5099664;28;20776;-63
2023/07/17 02:44:06;;;;;;;5.00;4.30;;;16.50;99.90;;;;;;5099620;28;20453;-55
2023/07/17 02:46:33;;;;;;;6.80;4.40;;;16.50;99.90;;;;;;5099851;28;20761;-56
2023/07/17 02:49:01;;;;;;;6.90;4.43;;;16.60;1.00;;;;;;5099573;28;20468;-56
2023/07/17 02:51:28;;;;;;;7.20;4.80;;;16.50;1.00;;;;;;5098646;28;20523;-58
2023/07/17 02:53:55;;;;;;;8.43;4.10;;;16.50;1.00;;;;;;5098191;28;20484;-58
2023/07/17 02:56:23;;;;;;;7.60;4.70;;;16.40;1.00;;;;;;5098371;28;20464;-59
2023/07/17 02:58:54;;;;;;;4.57;3.77;;;16.30;1.00;;;;;;5097604;28;20885;-60
2023/07/17 03:01:21;;;;;;;5.50;4.50;;;16.20;1.00;;;;;;5097881;28;20465;-61
2023/07/17 03:03:48;;;;;;;6.57;3.90;;;16.20;1.00;;;;;;5097736;28;20460;-62
2023/07/17 03:06:17;;;;;;;11.40;4.03;;;16.20;1.00;;;;;;5098201;28;20473;-62
2023/07/17 03:08:44;;;;;;;4.90;3.63;;;16.20;1.00;;;;;;5097814;28;20471;-63
2023/07/17 03:11:11;;;;;;;4.80;3.60;;;16.20;1.00;;;;;;5097338;28;20461;-63
2023/07/17 03:13:38;;;;;;;5.27;4.20;;;16.10;1.00;;;;;;5097816;28;20431;-63
2023/07/17 03:16:05;;;;;;;7.30;4.00;;;16.10;1.00;;;;;;5097810;28;20464;-63
2023/07/17 03:18:32;;;;;;;4.33;3.63;;;16.10;1.00;;;;;;5097019;28;20498;-64
2023/07/17 03:20:59;;;;;;;5.30;3.80;;;16.10;1.00;;;;;;5097454;28;20467;-65
2023/07/17 03:23:28;;;;;;;4.23;3.63;;;16.10;1.00;;;;;;5098281;28;20460;-65
2023/07/17 03:25:57;;;;;;;5.10;3.43;;;16.00;1.00;;;;;;5098912;28;20467;-65
2023/07/17 03:28:24;;;;;;;5.70;3.57;;;16.10;1.00;;;;;;5098980;28;20519;-66
2023/07/17 03:30:52;;;;;;;5.87;3.70;;;16.00;1.00;;;;;;5098919;28;20468;-65
2023/07/17 03:33:19;;;;;;;4.83;3.13;;;16.00;1.00;;;;;;5098773;28;20877;-65
2023/07/17 03:35:46;;;;;;;6.37;4.50;;;16.00;1.00;;;;;;5098999;28;20511;-65
2023/07/17 03:38:13;;;;;;;5.20;4.10;;;15.90;1.00;;;;;;5098990;28;20472;-67
2023/07/17 03:40:41;;;;;;;4.60;3.37;;;15.90;1.00;;;;;;5098962;28;20488;-68
2023/07/17 03:43:09;;;;;;;6.13;3.80;;;15.80;1.00;;;;;;5097942;28;20498;-69
2023/07/17 03:45:36;;;;;;;4.23;3.83;;;15.80;1.00;;;;;;5098174;28;20563;-68
2023/07/17 03:48:03;;;;;;;5.23;3.50;;;15.80;1.00;;;;;;5098389;28;20460;-68
2023/07/17 03:50:31;;;;;;;5.43;3.67;;;15.80;1.00;;;;;;5098709;28;20467;-69
2023/07/17 03:52:58;;;;;;;4.97;3.70;;;15.70;1.00;;;;;;5098094;28;20963;-68
2023/07/17 03:55:26;;;;;;;5.23;3.23;;;15.70;1.00;;;;;;5098049;28;20503;-69
2023/07/17 03:57:54;;;;;;;4.93;3.80;;;15.70;1.00;;;;;;5098354;28;20734;-69
2023/07/17 04:00:22;;;;;;;6.10;4.10;;;15.60;1.00;;;;;;5098053;28;20464;-69
2023/07/17 04:02:49;;;;;;;4.63;3.33;;;15.60;1.00;;;;;;5095892;28;20912;-69
2023/07/17 04:05:16;;;;;;;5.43;3.90;;;15.60;1.00;;;;;;5096621;28;20460;-69
2023/07/17 04:07:43;;;;;;;5.53;3.40;;;15.60;1.00;;;;;;5094850;28;20458;-69
2023/07/17 04:10:10;;;;;;;6.37;3.77;;;15.50;1.00;;;;;;5094863;28;20468;-70
2023/07/17 04:12:38;;;;;;;5.90;3.70;;;15.50;1.00;;;;;;5096567;28;20448;-69
2023/07/17 04:15:07;;;;;;;5.03;3.10;;;15.50;1.00;;;;;;5096105;28;20947;-69
2023/07/17 04:17:35;;;;;;;4.60;3.70;;;15.50;1.00;;;;;;5096165;28;20768;-69
2023/07/17 04:20:02;;;;;;;5.87;3.97;;;15.50;1.00;;;;;;5096009;28;20475;-70
2023/07/17 04:22:29;;;;;;;4.67;3.87;;;15.50;1.00;;;;;;5096323;28;20427;-69
2023/07/17 04:24:56;;;;;;;5.20;3.70;;;15.50;1.00;;;;;;5096202;28;20467;-71
2023/07/17 04:27:23;;;;;;;5.20;3.80;;;15.50;1.00;;;;;;5096180;28;20453;-60
2023/07/17 04:29:51;;;;;;;7.20;3.80;;;15.50;1.00;;;;;;5095822;28;20468;-66
2023/07/17 04:32:19;;;;;;;5.97;4.17;;;15.50;1.00;;;;;;5096139;28;20440;-68
2023/07/17 04:34:46;;;;;;;6.10;4.57;;;15.50;1.00;;;;;;5096224;28;20489;-68
2023/07/17 04:37:13;;;;;;;5.13;4.17;;;15.50;1.00;;;;;;5096001;28;20471;-69
2023/07/17 04:39:40;;;;;;;4.40;4.00;;;15.50;1.00;;;;;;5096076;28;20882;-67
2023/07/17 04:42:09;;;;;;;5.57;3.77;;;15.60;1.00;;;;;;5096042;28;20481;-68
2023/07/17 04:44:36;;;;;;;7.10;4.00;;;15.60;1.00;;;;;;5097118;28;20503;-68
2023/07/17 04:47:03;;;;;;;5.10;3.50;;;15.60;1.00;;;;;;5097900;28;20461;-72
2023/07/17 04:49:32;;;;;;;6.23;3.63;;;15.70;1.00;;;;;;5097706;28;20487;-69
2023/07/17 04:51:59;;;;;;;5.00;4.20;;;15.70;1.00;;;;;;5097428;28;20461;-68
2023/07/17 04:54:26;;;;;;;5.07;3.57;;;15.70;1.00;;;;;;5096900;28;20964;-70
2023/07/17 04:56:53;;;;;;;4.93;3.80;;;15.70;1.00;;;;;;5097485;28;20470;-72
2023/07/17 04:59:21;;;;;;;6.20;3.63;;;15.70;1.00;;;;;;5097541;28;20897;-66
2023/07/17 05:01:48;;;;;;;5.40;3.80;;;15.80;1.00;;;;;;5097076;28;20467;-66
2023/07/17 05:04:16;;;;;;;6.00;4.20;;;15.80;1.00;;;;;;5097358;28;20439;-66
2023/07/17 05:06:44;;;;;;;6.20;4.20;;;15.90;1.00;;;;;;5097242;28;20471;-66
2023/07/17 05:09:11;;;;;;;5.07;3.70;;;15.90;1.00;;;;;;5097431;28;20471;-66
2023/07/17 05:11:41;;;;;;;5.47;3.53;;;15.90;1.00;;;;;;5097093;28;20499;-66
2023/07/17 05:14:08;;;;;;;6.07;4.20;;;16.00;1.00;;;;;;5097085;28;20439;-66
2023/07/17 05:16:36;;;;;;;7.40;3.97;;;16.00;1.00;;;;;;5097320;28;20495;-65
2023/07/17 05:19:03;;;;;;;7.23;4.10;;;16.00;1.00;;;;;;5097495;28;20471;-65
2023/07/17 05:21:30;;;;;;;6.50;3.80;;;16.20;1.00;;;;;;5096721;28;20460;-65
2023/07/17 05:23:58;;;;;;;4.40;3.90;;;16.20;1.00;;;;;;5100098;28;20467;-66
2023/07/17 05:26:26;;;;;;;6.47;4.10;;;16.20;1.00;;;;;;5101105;28;20457;-67
2023/07/17 05:28:53;;;;;;;6.83;3.73;;;16.20;1.00;;;;;;5101657;28;20521;-67
2023/07/17 05:31:21;;;;;;;5.83;4.30;;;16.30;1.00;;;;;;5101690;28;20460;-64
2023/07/17 05:33:48;;;;;;;5.57;4.30;;;16.30;1.00;;;;;;5101071;28;20468;-66
2023/07/17 05:36:15;;;;;;;5.83;3.77;;;16.30;1.00;;;;;;5100855;28;20484;-66
2023/07/17 05:38:42;;;;;;;5.40;4.07;;;16.40;1.00;;;;;;5101371;28;20463;-65
2023/07/17 05:41:11;;;;;;;8.67;4.33;;;16.40;1.00;;;;;;5100542;28;20467;-65
2023/07/17 05:43:38;;;;;;;5.70;3.87;;;16.50;1.00;;;;;;5101003;28;20456;-66
2023/07/17 05:46:05;;;;;;;9.20;4.40;;;16.50;1.00;;;;;;5100962;28;20749;-65
2023/07/17 05:48:32;;;;;;;6.30;4.40;;;16.60;1.00;;;;;;5101149;28;20478;-66
2023/07/17 05:50:59;;;;;;;6.30;4.40;;;16.60;1.00;;;;;;5101032;28;20463;-66
2023/07/17 05:53:27;;;;;;;4.07;3.20;;;16.70;1.00;;;;;;5101232;28;20498;-66
2023/07/17 05:55:54;;;;;;;7.90;4.10;;;16.80;1.00;;;;;;5100286;28;20488;-66
2023/07/17 05:58:22;;;;;;;5.87;4.10;;;16.90;99.90;;;;;;5100768;28;20467;-65
2023/07/17 06:00:49;;;;;;;5.67;4.13;;;17.00;99.90;;;;;;5100418;28;20460;-65
2023/07/17 06:03:17;;;;;;;6.40;4.20;;;17.10;99.90;;;;;;5100876;28;20435;-64
2023/07/17 06:05:45;;;;;;;7.17;4.03;;;17.10;99.90;;;;;;5100348;28;20446;-65
2023/07/17 06:08:12;;;;;;;6.27;4.70;;;17.30;99.90;;;;;;5100102;28;20472;-65
2023/07/17 06:10:39;;;;;;;8.70;4.93;;;17.40;99.90;;;;;;5100357;28;20778;-65
2023/07/17 06:13:06;;;;;;;7.43;4.97;;;17.50;99.90;;;;;;5100476;28;20955;-64
2023/07/17 06:15:35;;;;;;;8.93;5.47;;;17.60;99.90;;;;;;5099783;28;20496;-62
2023/07/17 06:18:02;;;;;;;8.70;5.30;;;17.80;99.90;;;;;;5100225;28;20733;-64
2023/07/17 06:20:29;;;;;;;7.10;4.60;;;17.90;99.90;;;;;;5100321;28;20499;-65
2023/07/17 06:22:56;;;;;;;7.30;5.07;;;18.00;99.90;;;;;;5100213;28;20487;-65
2023/07/17 06:25:23;;;;;;;8.43;6.00;;;18.10;99.90;;;;;;5100343;28;20477;-65
2023/07/17 06:27:51;;;;;;;10.63;6.20;;;18.10;99.90;;;;;;5100034;28;20466;-63
2023/07/17 06:30:18;;;;;;;12.20;5.33;;;18.20;99.90;;;;;;5100483;28;20460;-65
2023/07/17 06:32:46;;;;;;;8.10;6.27;;;18.30;99.90;;;;;;5100043;28;20797;-63
2023/07/17 06:35:14;;;;;;;9.73;6.40;;;18.60;99.90;;;;;;5099040;28;20484;-64
2023/07/17 06:37:41;;;;;;;12.07;6.47;;;18.70;99.90;;;;;;5099879;28;20720;-64
2023/07/17 06:40:10;;;;;;;6.60;5.80;;;18.50;99.90;;;;;;5099970;28;20555;-62
2023/07/17 06:42:38;;;;;;;6.90;5.87;;;18.70;99.90;;;;;;5099580;28;20500;-62
2023/07/17 06:45:06;;;;;;;12.30;6.60;;;18.60;99.90;;;;;;5099837;28;20754;-63
2023/07/17 06:47:34;;;;;;;8.00;6.10;;;18.80;99.90;;;;;;5100087;28;20470;-65
2023/07/17 06:50:02;;;;;;;11.80;6.47;;;18.80;99.90;;;;;;5099447;28;20464;-62
2023/07/17 06:52:30;;;;;;;7.30;6.57;;;19.00;99.90;;;;;;5099647;28;20482;-63
2023/07/17 06:54:57;;;;;;;9.43;6.90;;;19.10;99.90;;;;;;5099845;28;20499;-63
2023/07/17 06:57:24;;;;;;;9.53;5.80;;;19.40;99.90;;;;;;5099170;28;20558;-62
2023/07/17 06:59:52;;;;;;;12.03;6.37;;;19.90;99.90;;;;;;5099511;28;20471;-63
2023/07/17 07:02:19;;;;;;;7.83;5.47;;;19.90;99.90;;;;;;5099383;28;20554;-64
2023/07/17 07:04:46;;;;;;;7.97;5.13;;;19.80;99.90;;;;;;5099712;28;20740;-65
2023/07/17 07:07:15;;;;;;;6.93;6.10;;;19.80;99.90;;;;;;5099493;28;20460;-63
2023/07/17 07:09:42;;;;;;;10.17;6.57;;;19.80;99.90;;;;;;5098882;28;20878;-64
2023/07/17 07:12:10;;;;;;;10.17;6.33;;;19.90;99.90;;;;;;5097377;28;20543;-65
2023/07/17 07:14:37;;;;;;;8.93;7.17;;;20.10;99.90;;;;;;5096834;28;20952;-64
2023/07/17 07:17:04;;;;;;;8.00;6.47;;;20.00;99.90;;;;;;5097359;28;20474;-65
2023/07/17 07:19:32;;;;;;;10.80;6.93;;;20.20;99.90;;;;;;5097527;28;20885;-65
2023/07/17 07:21:59;;;;;;;10.07;7.27;;;19.80;99.90;;;;;;5097884;28;20464;-63
2023/07/17 07:24:27;;;;;;;11.07;7.23;;;19.80;99.90;;;;;;5097857;28;20464;-64
2023/07/17 07:26:54;;;;;;;8.83;7.40;;;20.40;99.90;;;;;;5098363;28;20555;-65
2023/07/17 07:29:22;;;;;;;10.50;7.00;;;20.70;99.90;;;;;;5098295;28;20467;-66
2023/07/17 07:31:49;;;;;;;11.13;6.93;;;20.90;99.90;;;;;;5098401;28;20446;-66
2023/07/17 07:34:16;;;;;;;8.70;6.90;;;20.90;99.90;;;;;;5098845;28;20464;-65
2023/07/17 07:36:44;;;;;;;7.33;6.10;;;20.80;99.90;;;;;;5098867;28;20942;-63
2023/07/17 07:39:11;;;;;;;9.77;7.13;;;20.50;99.90;;;;;;5098770;28;20445;-65
2023/07/17 07:41:40;;;;;;;7.33;6.53;;;20.60;99.90;;;;;;5097184;28;20492;-65
2023/07/17 07:44:07;;;;;;;8.37;6.90;;;20.60;99.90;;;;;;5097658;28;20829;-65
2023/07/17 07:46:34;;;;;;;10.83;7.23;;;20.30;99.90;;;;;;5097942;28;20555;-67
2023/07/17 07:49:02;;;;;;;8.30;6.47;;;20.60;99.90;;;;;;5098255;28;20487;-63
2023/07/17 07:51:29;;;;;;;8.40;6.00;;;20.60;99.90;;;;;;5097740;28;20507;-63
2023/07/17 07:53:56;;;;;;;7.33;6.20;;;21.00;99.90;;;;;;5097745;28;20506;-63
2023/07/17 07:56:23;;;;;;;9.00;7.20;;;21.30;99.90;;;;;;5090374;28;20488;-64
2023/07/17 07:58:52;;;;;;;6.97;6.10;;;21.30;99.90;;;;;;5097712;28;20434;-63
2023/07/17 08:01:19;;;;;;;6.60;5.90;;;21.70;99.90;;;;;;5098167;28;20466;-64
2023/07/17 08:03:46;;;;;;;10.33;6.20;;;21.60;99.90;;;;;;5097965;28;20509;-63
2023/07/17 08:06:13;;;;;;;13.93;7.23;;;21.50;99.90;;;;;;5097964;28;20510;-65
2023/07/17 08:08:41;;;;;;;8.53;6.90;;;21.30;99.90;;;;;;5097949;28;20492;-65
2023/07/17 08:11:08;;;;;;;6.93;6.20;;;20.70;99.90;;;;;;5098185;28;20457;-64
2023/07/17 08:13:36;;;;;;;9.13;6.37;;;21.10;99.90;;;;;;5097914;28;20878;-66
2023/07/17 08:16:04;;;;;;;8.10;6.57;;;21.50;99.90;;;;;;5097472;28;20499;-64
2023/07/17 08:18:31;;;;;;;9.10;6.10;;;21.10;99.90;;;;;;5097532;28;20443;-64
2023/07/17 08:20:59;;;;;;;7.10;6.10;;;21.10;99.90;;;;;;5096665;28;20464;-66
2023/07/17 08:23:27;;;;;;;8.80;6.80;;;21.00;99.90;;;;;;5097904;28;20457;-65
2023/07/17 08:25:54;;;;;;;7.57;6.50;;;21.40;99.90;;;;;;5097736;28;20466;-64
2023/07/17 08:28:21;;;;;;;7.90;5.70;;;21.90;99.90;;;;;;5097625;28;20464;-67
2023/07/17 08:30:51;;;;;;;7.00;6.30;;;22.10;99.90;;;;;;5097877;28;20439;-66
2023/07/17 08:33:21;;;;;;;7.67;6.63;;;22.50;99.90;;;;;;5096398;28;20466;-68
2023/07/17 08:35:51;;;;;;;11.07;7.57;;;22.90;99.90;;;;;;5097796;28;20495;-65
2023/07/17 08:38:18;;;;;;;8.00;5.80;;;23.20;99.90;;;;;;5097745;28;20480;-66
2023/07/17 08:40:50;;;;;;;7.63;6.20;;;23.10;99.90;;;;;;5097659;28;20482;-67
2023/07/17 08:43:18;;;;;;;8.47;5.80;;;22.90;99.90;;;;;;5097165;28;20785;-65
2023/07/17 08:45:46;;;;;;;6.83;5.50;;;22.20;99.90;;;;;;5097229;28;20463;-64
2023/07/17 08:48:14;;;;;;;7.00;6.00;;;22.40;99.90;;;;;;5097599;28;20434;-64
2023/07/17 08:50:43;;;;;;;10.03;5.83;;;23.00;99.90;;;;;;5097794;28;20465;-67
2023/07/17 08:53:12;;;;;;;7.13;6.40;;;23.30;99.90;;;;;;5096877;28;20471;-66
2023/07/17 08:55:41;;;;;;;7.57;5.73;;;23.70;99.90;;;;;;5096081;28;20522;-66
2023/07/17 08:58:09;;;;;;;7.37;5.87;;;23.70;99.90;;;;;;5096664;28;20471;-66
2023/07/17 09:00:38;;;;;;;7.17;6.40;;;24.10;99.90;;;;;;5097760;28;20466;-65
2023/07/17 09:03:06;;;;;;;6.20;5.60;;;24.00;99.90;;;;;;5097484;28;20464;-67
2023/07/17 09:05:33;;;;;;;9.10;5.73;;;24.00;99.90;;;;;;5096163;28;20823;-66
2023/07/17 09:08:02;;;;;;;7.10;5.40;;;24.30;99.90;;;;;;5097342;28;20559;-67
2023/07/17 09:10:29;;;;;;;5.93;5.03;;;24.30;99.90;;;;;;5097230;28;20467;-66
2023/07/17 09:12:58;;;;;;;7.53;5.93;;;24.40;99.90;;;;;;5097415;28;20494;-63
2023/07/17 09:15:26;;;;;;;6.50;5.90;;;24.20;99.90;;;;;;5097589;28;20510;-68
2023/07/17 09:17:53;;;;;;;6.60;5.77;;;23.50;99.90;;;;;;5097135;28;20492;-66
2023/07/17 09:20:21;;;;;;;7.90;5.80;;;23.30;99.90;;;;;;5097109;28;20914;-64
2023/07/17 09:22:49;;;;;;;6.30;5.57;;;23.80;99.90;;;;;;5097566;28;20464;-65
2023/07/17 09:25:18;;;;;;;7.63;5.60;;;23.40;99.90;;;;;;5097350;28;20460;-64
2023/07/17 09:27:47;;;;;;;8.03;6.30;;;22.80;99.90;;;;;;5097577;28;20456;-64
2023/07/17 09:30:16;;;;;;;6.73;5.77;;;22.20;99.90;;;;;;5097069;28;20468;-64
2023/07/17 09:32:44;;;;;;;8.33;6.40;;;22.50;99.90;;;;;;5097501;28;20460;-66
2023/07/17 09:35:12;;;;;;;8.07;5.93;;;23.30;99.90;;;;;;5097456;28;20434;-65
2023/07/17 09:37:42;;;;;;;6.13;5.47;;;23.30;99.90;;;;;;5097230;28;20515;-65
2023/07/17 09:40:11;;;;;;;7.67;5.00;;;23.10;99.90;;;;;;5097272;28;20509;-65
2023/07/17 09:42:42;;;;;;;5.37;4.80;;;23.30;99.90;;;;;;5096880;28;20512;-68
2023/07/17 09:45:11;;;;;;;6.73;5.60;;;23.40;99.90;;;;;;5097127;28;20761;-65
2023/07/17 09:47:39;;;;;;;6.23;5.30;;;23.50;99.90;;;;;;5096629;28;20496;-66
2023/07/17 09:50:08;;;;;;;8.00;5.70;;;23.90;99.90;;;;;;5095821;28;20950;-65
2023/07/17 09:52:35;;;;;;;6.80;5.73;;;24.60;99.90;;;;;;5096134;28;20460;-67
2023/07/17 09:55:02;;;;;;;6.40;5.43;;;25.20;99.90;;;;;;5096922;28;20470;-64
2023/07/17 09:57:32;;;;;;;6.10;5.20;;;25.00;99.90;;;;;;5096622;28;20494;-66
2023/07/17 10:00:05;;;;;;;5.80;5.10;;;25.30;99.90;;;;;;5096557;28;20476;-66
2023/07/17 10:02:37;;;;;;;7.43;5.80;;;24.80;99.90;;;;;;5097109;28;20533;-63
2023/07/17 10:05:06;;;;;;;9.83;5.40;;;24.10;99.90;;;;;;5097250;28;20438;-64
2023/07/17 10:07:36;;;;;;;6.30;5.00;;;23.50;99.90;;;;;;5096389;28;20556;-64
2023/07/17 10:10:04;;;;;;;9.73;5.50;;;23.60;99.90;;;;;;5097967;28;20449;-63
2023/07/17 10:12:33;;;;;;;7.73;5.27;;;23.60;99.90;;;;;;5100580;28;20551;-64
2023/07/17 10:15:03;;;;;;;6.47;5.50;;;24.40;99.90;;;;;;5100763;28;20467;-67
2023/07/17 10:17:31;;;;;;;10.00;5.40;;;24.80;99.90;;;;;;5100402;28;20999;-64
2023/07/17 10:20:00;;;;;;;5.83;5.23;;;24.50;99.90;;;;;;5100693;28;20756;-61
2023/07/17 10:22:38;;;;;;;8.57;5.37;;;23.80;99.90;;;;;;5100874;28;20877;-63
2023/07/17 10:25:26;;;;;;;7.87;5.20;;;23.50;99.90;;;;;;5101179;28;20456;-64
2023/07/17 10:27:58;;;;;;;8.60;5.67;;;23.80;99.90;;;;;;5100776;28;20555;-65
2023/07/17 10:30:28;;;;;;;8.77;5.83;;;23.80;99.90;;;;;;5100992;28;20467;-65
2023/07/17 10:33:07;;;;;;;6.63;5.87;;;23.50;99.90;;;;;;5101372;28;20452;-65
2023/07/17 10:35:48;;;;;;;6.20;5.60;;;22.90;99.90;;;;;;5102156;28;20492;-63
2023/07/17 10:38:18;;;;;;;10.03;6.03;;;22.70;99.90;;;;;;5100287;28;20492;-63
2023/07/17 10:40:46;;;;;;;5.87;5.27;;;23.10;99.90;;;;;;5100131;28;20469;-64
2023/07/17 10:43:18;;;;;;;5.60;5.10;;;24.20;99.90;;;;;;5096648;28;20497;-65
2023/07/17 10:45:48;;;;;;;6.93;5.70;;;25.30;99.90;;;;;;5099826;28;20751;-65
2023/07/17 10:48:17;;;;;;;9.13;5.80;;;25.40;99.90;;;;;;5098918;28;20453;-67
2023/07/17 10:50:49;;;;;;;8.53;6.33;;;25.90;99.90;;;;;;5099885;28;20881;-64
2023/07/17 10:53:16;;;;;;;8.03;6.03;;;25.30;99.90;;;;;;5099737;28;20555;-62
2023/07/17 10:55:44;;;;;;;8.60;6.17;;;24.60;99.90;;;;;;5100843;28;20473;-64
2023/07/17 10:58:11;;;;;;;7.97;5.20;;;24.30;99.90;;;;;;5102013;28;20492;-63
2023/07/17 11:00:42;;;;;;;9.00;5.47;;;24.30;99.90;;;;;;5099356;28;20960;-63
2023/07/17 11:03:11;;;;;;;7.53;6.70;;;24.30;99.90;;;;;;5099722;28;20460;-64
2023/07/17 11:05:38;;;;;;;8.23;5.67;;;24.20;99.90;;;;;;5095985;28;20473;-62
2023/07/17 11:08:06;;;;;;;10.47;6.30;;;24.00;99.90;;;;;;5101871;28;20457;-64
2023/07/17 11:10:34;;;;;;;7.30;6.70;;;24.20;99.90;;;;;;5099589;28;20486;-59
2023/07/17 11:13:03;;;;;;;9.17;5.57;;;24.00;99.90;;;;;;5099804;28;20568;-63
2023/07/17 11:15:32;;;;;;;6.47;5.70;;;23.40;99.90;;;;;;5098803;28;20520;-63
2023/07/17 11:18:00;;;;;;;7.00;6.30;;;23.10;99.90;;;;;;5099506;28;20492;-64
2023/07/17 11:20:31;;;;;;;7.60;6.20;;;22.80;99.90;;;;;;5098756;28;20456;-63
2023/07/17 11:22:58;;;;;;;9.47;6.10;;;22.60;99.90;;;;;;5099432;28;20500;-64
2023/07/17 11:25:27;;;;;;;6.70;6.00;;;22.80;99.90;;;;;;5099270;28;20456;-63
2023/07/17 11:27:56;;;;;;;7.57;5.87;;;23.20;99.90;;;;;;5098360;28;20560;-63
2023/07/17 11:30:26;;;;;;;6.77;5.10;;;23.40;99.90;;;;;;5099098;28;20511;-67
2023/07/17 11:33:05;;;;;;;6.37;5.40;;;23.80;99.90;;;;;;5099401;28;20531;-64
2023/07/17 11:35:46;;;;;;;10.00;6.10;;;24.20;99.90;;;;;;5098554;28;20894;-65
2023/07/17 11:38:15;;;;;;;8.97;5.53;;;24.40;99.90;;;;;;5095699;28;20496;-62
2023/07/17 11:40:57;;;;;;;8.77;5.70;;;25.00;99.90;;;;;;5096987;28;20940;-60
2023/07/17 11:43:26;;;;;;;6.90;4.97;;;25.40;99.90;;;;;;5096216;28;20492;-63
2023/07/17 11:45:55;;;;;;;8.50;5.93;;;24.90;99.90;;;;;;5079829;28;20512;-63
2023/07/17 11:48:25;;;;;;;8.17;5.90;;;24.30;99.90;;;;;;5097796;28;20484;-66
2023/07/17 11:50:55;;;;;;;6.00;5.37;;;24.90;99.90;;;;;;5098235;28;20479;-64
2023/07/17 11:53:25;;;;;;;10.20;6.50;;;25.70;99.90;;;;;;5098018;28;20459;-61
2023/07/17 11:55:52;;;;;;;10.97;6.07;;;25.30;99.90;;;;;;5097841;28;20455;-64
2023/07/17 11:58:21;;;;;;;7.07;6.30;;;24.90;99.90;;;;;;5093403;28;20944;-63
2023/07/17 12:00:49;;;;;;;9.73;5.50;;;24.70;99.90;;;;;;5091772;28;20563;-64
2023/07/17 12:03:17;;;;;;;10.33;5.40;;;24.70;99.90;;;;;;5096969;28;20838;-65
2023/07/17 12:05:45;;;;;;;6.17;5.40;;;25.20;99.90;;;;;;5098085;28;20471;-64
2023/07/17 12:08:13;;;;;;;7.00;6.30;;;25.30;99.90;;;;;;5097550;28;20559;-63
2023/07/17 12:10:46;;;;;;;7.60;5.90;;;25.00;99.90;;;;;;5090251;28;20551;-65
2023/07/17 12:13:14;;;;;;;8.93;5.57;;;24.80;99.90;;;;;;5084270;28;20537;-63
2023/07/17 12:15:41;;;;;;;5.90;5.30;;;24.60;99.90;;;;;;5095527;28;20448;-64
2023/07/17 12:18:09;;;;;;;8.00;5.70;;;24.60;99.90;;;;;;5095392;28;20492;-62
2023/07/17 12:20:36;;;;;;;7.27;5.60;;;24.90;99.90;;;;;;5095883;28;20470;-63
2023/07/17 12:23:05;;;;;;;7.43;6.00;;;24.50;99.90;;;;;;5096833;28;20460;-62
2023/07/17 12:25:33;;;;;;;8.57;5.93;;;24.00;99.90;;;;;;5096573;28;20899;-62
2023/07/17 12:28:01;;;;;;;8.70;6.30;;;24.00;99.90;;;;;;5098241;28;20488;-60
2023/07/17 12:30:29;;;;;;;6.77;6.07;;;23.90;99.90;;;;;;5092183;28;20759;-62
2023/07/17 12:32:58;;;;;;;6.60;6.00;;;23.90;99.90;;;;;;5095092;28;20549;-62
2023/07/17 12:35:25;;;;;;;13.10;6.47;;;24.00;99.90;;;;;;5095034;28;20500;-62
2023/07/17 12:37:53;;;;;;;8.40;6.30;;;24.00;99.90;;;;;;5092706;28;20591;-62
2023/07/17 12:40:20;;;;;;;6.73;6.03;;;24.30;99.90;;;;;;5094169;28;20880;-61
2023/07/17 12:42:49;;;;;;;10.20;5.70;;;24.90;99.90;;;;;;5094360;28;20598;-61
2023/07/17 12:45:16;;;;;;;8.53;5.77;;;25.40;99.90;;;;;;5094244;28;20932;-61
2023/07/17 12:47:43;;;;;;;8.73;6.00;;;25.90;99.90;;;;;;5076180;28;20488;-60
2023/07/17 12:50:10;;;;;;;7.83;5.57;;;26.90;99.90;;;;;;5094629;28;20457;-62
2023/07/17 12:52:38;;;;;;;12.13;6.50;;;27.60;99.90;;;;;;5095741;28;20460;-62
2023/07/17 12:55:06;;;;;;;5.60;5.10;;;28.00;99.90;;;;;;5085896;28;20807;-62